createdAt,value
2023-05-19T00:04:02.338Z,8.32
2023-05-19T00:09:07.927Z,8.75
2023-05-19T00:14:11.280Z,7.66
2023-05-19T00:19:14.340Z,7.05
2023-05-19T00:24:17.389Z,6.93
2023-05-19T00:29:20.299Z,7.09
2023-05-19T00:34:23.203Z,6.99
2023-05-19T00:39:26.101Z,6.71
2023-05-19T00:44:29.006Z,6.43
2023-05-19T00:49:32.005Z,6.27
2023-05-19T00:54:35.530Z,6.28
2023-05-19T00:59:38.426Z,6.21
2023-05-19T01:04:42.271Z,6.17
2023-05-19T01:09:45.364Z,6.24
2023-05-19T01:14:48.418Z,6.24
2023-05-19T01:19:57.459Z,6.48
2023-05-19T01:25:23.699Z,6.65
2023-05-19T01:30:36.144Z,6.87
2023-05-19T01:35:39.746Z,7.07
2023-05-19T01:40:44.248Z,7.26
2023-05-19T01:45:47.605Z,7.44
2023-05-19T01:50:50.823Z,7.71
2023-05-19T01:55:55.615Z,7.93
2023-05-19T02:01:17.909Z,8.07
2023-05-19T02:06:37.546Z,8.19
2023-05-19T02:11:51.773Z,8.32
2023-05-19T02:16:54.912Z,8.50
2023-05-19T02:21:58.345Z,8.75
2023-05-19T02:27:01.598Z,8.91
2023-05-19T02:32:04.739Z,9.05
2023-05-19T02:37:08.492Z,9.19
2023-05-19T02:42:12.896Z,9.41
2023-05-19T02:47:16.213Z,9.49
2023-05-19T02:52:20.202Z,9.74
2023-05-19T02:57:23.229Z,9.96
2023-05-19T03:02:26.325Z,10.08
2023-05-19T03:07:29.355Z,10.21
2023-05-19T03:12:32.918Z,10.44
2023-05-19T03:17:36.864Z,10.72
2023-05-19T03:22:40.042Z,11.19
2023-05-19T03:27:42.985Z,11.43
2023-05-19T03:32:46.172Z,11.20
2023-05-19T03:37:49.440Z,11.03
2023-05-19T03:42:52.548Z,11.04
2023-05-19T03:47:55.620Z,11.16
2023-05-19T03:53:37.004Z,11.23
2023-05-19T03:58:43.853Z,11.20
2023-05-19T04:03:47.097Z,11.24
2023-05-19T04:08:50.334Z,11.38
2023-05-19T04:13:53.781Z,11.53
2023-05-19T04:18:57.310Z,11.68
2023-05-19T04:24:00.970Z,11.80
2023-05-19T04:29:05.329Z,11.89
2023-05-19T04:34:08.697Z,12.06
2023-05-19T04:39:12.817Z,12.03
2023-05-19T04:44:19.702Z,12.04
2023-05-19T04:49:25.816Z,12.14
2023-05-19T04:54:29.005Z,12.40
2023-05-19T04:59:32.604Z,12.58
2023-05-19T05:04:36.692Z,12.85
2023-05-19T05:09:39.601Z,12.87
2023-05-19T05:14:43.593Z,12.91
2023-05-19T05:19:47.002Z,13.00
2023-05-19T05:24:50.227Z,13.18
2023-05-19T05:29:55.620Z,13.18
2023-05-19T05:34:59.892Z,13.27
2023-05-19T05:40:04.206Z,13.38
2023-05-19T05:45:08.038Z,13.45
2023-05-19T05:50:12.011Z,13.56
2023-05-19T05:55:18.043Z,13.71
2023-05-19T06:00:22.821Z,13.77
2023-05-19T06:05:29.068Z,13.83
2023-05-19T06:10:33.763Z,13.94
2023-05-19T06:15:37.435Z,14.03
2023-05-19T06:20:53.229Z,14.22
2023-05-19T06:25:56.889Z,14.37
2023-05-19T06:31:00.546Z,14.51
2023-05-19T06:36:24.790Z,14.72
2023-05-19T06:41:31.209Z,14.91
2023-05-19T06:46:35.049Z,15.04
2023-05-19T06:51:38.111Z,15.19
2023-05-19T06:56:41.512Z,15.35
2023-05-19T07:01:44.859Z,15.76
2023-05-19T07:06:48.350Z,16.05
2023-05-19T07:11:51.802Z,16.20
2023-05-19T07:16:55.037Z,16.22
2023-05-19T07:21:59.713Z,16.37
2023-05-19T07:27:02.746Z,16.27
2023-05-19T07:32:06.289Z,16.35
2023-05-19T07:37:09.257Z,16.33
2023-05-19T07:42:12.153Z,16.60
2023-05-19T07:47:15.016Z,16.96
2023-05-19T07:52:18.742Z,17.27
2023-05-19T07:57:21.661Z,17.49
2023-05-19T08:02:24.650Z,17.66
2023-05-19T08:07:30.342Z,17.61
2023-05-19T08:12:33.204Z,17.62
2023-05-19T08:17:36.264Z,17.36
2023-05-19T08:22:39.630Z,17.45
2023-05-19T08:27:42.599Z,17.57
2023-05-19T08:32:45.569Z,17.54
2023-05-19T08:37:48.410Z,17.56
2023-05-19T08:42:51.757Z,17.75
2023-05-19T08:47:54.889Z,17.75
2023-05-19T08:53:25.120Z,17.77
2023-05-19T08:58:35.335Z,18.08
2023-05-19T09:03:39.666Z,18.58
2023-05-19T09:08:43.182Z,18.75
2023-05-19T09:13:46.556Z,18.48
2023-05-19T09:18:56.872Z,18.30
2023-05-19T09:24:06.613Z,18.57
2023-05-19T09:29:14.176Z,18.35
2023-05-19T09:34:17.446Z,18.03
2023-05-19T09:39:21.945Z,18.15
2023-05-19T09:44:30.018Z,18.51
2023-05-19T09:49:33.264Z,18.40
2023-05-19T09:54:36.624Z,18.19
2023-05-19T09:59:39.864Z,18.26
2023-05-19T10:04:43.167Z,18.20
2023-05-19T10:09:46.802Z,18.01
2023-05-19T10:14:49.721Z,17.91
2023-05-19T10:19:53.161Z,17.98
2023-05-19T10:24:56.437Z,17.86
2023-05-19T10:30:03.083Z,17.90
2023-05-19T10:35:23.457Z,18.05
2023-05-19T10:40:39.788Z,18.11
2023-05-19T10:45:48.636Z,18.02
2023-05-19T10:50:55.621Z,18.00
2023-05-19T10:56:04.459Z,18.08
2023-05-19T11:01:14.687Z,18.08
2023-05-19T11:06:18.954Z,18.05
2023-05-19T11:11:23.418Z,17.98
2023-05-19T11:16:30.951Z,18.05
2023-05-19T11:21:55.391Z,17.98
2023-05-19T11:26:58.290Z,17.94
2023-05-19T11:32:01.336Z,17.96
2023-05-19T11:37:05.275Z,17.95
2023-05-19T11:42:11.844Z,17.97
2023-05-19T11:47:15.658Z,17.99
2023-05-19T11:52:18.590Z,17.95
2023-05-19T11:57:21.575Z,18.01
2023-05-19T12:02:26.460Z,18.03
2023-05-19T12:07:29.844Z,18.20
2023-05-19T12:12:32.828Z,18.22
2023-05-19T12:17:36.162Z,18.30
2023-05-19T12:22:39.234Z,18.52
2023-05-19T12:27:43.688Z,19.45
2023-05-19T12:32:47.335Z,19.97
2023-05-19T12:37:50.979Z,19.35
2023-05-19T12:42:59.448Z,18.66
2023-05-19T12:48:12.030Z,18.22
2023-05-19T12:53:15.959Z,18.17
2023-05-19T12:58:19.577Z,20.13
2023-05-19T13:03:22.732Z,22.58
2023-05-19T13:08:28.174Z,23.82
2023-05-19T13:13:31.941Z,24.24
2023-05-19T13:18:39.318Z,23.90
2023-05-19T13:23:43.392Z,23.86
2023-05-19T13:28:47.060Z,23.66
2023-05-19T13:33:50.344Z,23.47
2023-05-19T13:38:53.417Z,22.98
2023-05-19T13:43:59.668Z,22.94
2023-05-19T13:49:02.748Z,22.67
2023-05-19T13:54:05.867Z,22.38
2023-05-19T13:59:09.080Z,21.82
2023-05-19T14:04:12.411Z,20.94
2023-05-19T14:09:16.452Z,20.19
2023-05-19T14:14:19.565Z,18.81
2023-05-19T14:19:23.571Z,17.60
2023-05-19T14:24:26.892Z,16.62
2023-05-19T14:29:31.714Z,16.00
2023-05-19T14:34:35.823Z,15.49
2023-05-19T14:39:38.915Z,15.08
2023-05-19T14:44:41.903Z,14.77
2023-05-19T14:49:44.950Z,14.41
2023-05-19T14:54:47.929Z,14.14
2023-05-19T14:59:51.117Z,14.02
2023-05-19T15:04:54.575Z,13.84
2023-05-19T15:09:57.744Z,13.62
2023-05-19T15:15:00.799Z,13.50
2023-05-19T15:20:04.385Z,13.32
2023-05-19T15:25:08.491Z,12.97
2023-05-19T15:30:11.894Z,12.81
2023-05-19T15:35:15.113Z,12.91
2023-05-19T15:40:18.669Z,13.02
2023-05-19T15:45:22.788Z,12.93
2023-05-19T15:50:27.170Z,12.62
2023-05-19T15:55:30.176Z,12.45
2023-05-19T16:00:33.689Z,12.37
2023-05-19T16:05:36.820Z,12.33
2023-05-19T16:10:40.068Z,12.18
2023-05-19T16:15:43.149Z,12.00
2023-05-19T16:20:46.346Z,11.49
2023-05-19T16:25:50.848Z,11.08
2023-05-19T16:30:59.089Z,10.78
2023-05-19T16:36:02.219Z,10.51
2023-05-19T16:41:07.733Z,10.20
2023-05-19T16:46:12.537Z,10.06
2023-05-19T16:51:15.596Z,10.00
2023-05-19T16:56:18.638Z,9.92
2023-05-19T17:01:22.183Z,9.78
2023-05-19T17:06:25.346Z,9.75
2023-05-19T17:11:28.618Z,9.84
2023-05-19T17:16:31.614Z,9.81
2023-05-19T17:21:34.765Z,9.71
2023-05-19T17:26:37.818Z,9.40
2023-05-19T17:31:41.954Z,9.12
2023-05-19T17:36:50.038Z,8.87
2023-05-19T17:41:53.132Z,8.79
2023-05-19T17:46:56.439Z,8.64
2023-05-19T17:52:00.152Z,8.74
2023-05-19T17:57:04.662Z,8.80
2023-05-19T18:02:08.641Z,8.80
2023-05-19T18:07:12.578Z,8.88
2023-05-19T18:12:15.823Z,8.70
2023-05-19T18:17:18.770Z,8.80
2023-05-19T18:22:22.562Z,8.77
2023-05-19T18:27:25.747Z,8.67
2023-05-19T18:32:30.244Z,8.56
2023-05-19T18:37:33.154Z,8.42
2023-05-19T18:42:36.219Z,8.20
2023-05-19T18:47:39.533Z,8.01
2023-05-19T18:52:43.040Z,7.86
2023-05-19T18:57:46.498Z,7.58
2023-05-19T19:02:50.014Z,7.45
2023-05-19T19:07:53.780Z,7.51
2023-05-19T19:12:58.321Z,7.67
2023-05-19T19:18:01.297Z,7.95
2023-05-19T19:23:06.995Z,8.10
2023-05-19T19:28:10.880Z,8.04
2023-05-19T19:33:13.864Z,8.01
2023-05-19T19:38:17.112Z,7.92
2023-05-19T19:43:20.139Z,7.58
2023-05-19T19:48:23.086Z,7.27
2023-05-19T19:53:26.168Z,7.04
2023-05-19T19:58:29.738Z,6.93
2023-05-19T20:03:33.847Z,6.86
2023-05-19T20:08:37.025Z,6.70
2023-05-19T20:13:39.996Z,6.58
2023-05-19T20:18:43.037Z,6.47
2023-05-19T20:23:46.640Z,6.48
2023-05-19T20:28:49.560Z,6.35
2023-05-19T20:33:52.726Z,6.14
2023-05-19T20:38:56.257Z,5.96
2023-05-19T20:43:59.351Z,5.76
2023-05-19T20:49:02.605Z,5.67
2023-05-19T20:54:07.708Z,5.62
2023-05-19T20:59:10.881Z,5.47
2023-05-19T21:04:14.786Z,5.35
2023-05-19T21:09:17.966Z,5.22
2023-05-19T21:14:21.827Z,5.12
2023-05-19T21:19:24.994Z,5.03
2023-05-19T21:24:28.810Z,4.89
2023-05-19T21:29:31.894Z,4.88
2023-05-19T21:34:35.042Z,4.81
2023-05-19T21:39:38.126Z,4.87
2023-05-19T21:44:41.367Z,4.84
2023-05-19T21:49:44.569Z,4.79
2023-05-19T21:54:48.323Z,4.76
2023-05-19T21:59:51.637Z,4.75
2023-05-19T22:04:54.727Z,4.73
2023-05-19T22:09:57.632Z,4.75
2023-05-19T22:15:01.265Z,4.80
2023-05-19T22:20:06.048Z,4.87
2023-05-19T22:25:09.223Z,4.96
2023-05-19T22:30:12.637Z,5.09
2023-05-19T22:35:15.500Z,5.22
2023-05-19T22:40:18.608Z,5.37
2023-05-19T22:45:21.773Z,5.51
2023-05-19T22:50:24.814Z,5.69
2023-05-19T22:55:27.852Z,5.85
2023-05-19T23:00:30.898Z,5.95
2023-05-19T23:05:34.285Z,6.11
2023-05-19T23:10:37.353Z,6.29
2023-05-19T23:15:40.214Z,6.48
2023-05-19T23:20:43.165Z,7.02
2023-05-19T23:25:46.548Z,7.66
2023-05-19T23:30:49.508Z,8.16
2023-05-19T23:35:52.411Z,8.47
2023-05-19T23:40:55.345Z,8.28
2023-05-19T23:45:58.834Z,8.49
2023-05-19T23:51:01.917Z,9.09
2023-05-19T23:56:04.968Z,10.30
